Time;durP1;ratioP1;P1;durP2;ratioP2;P2;SDS_P1;SDS_P2;PMS_P1;PMS_P2;Temp;Humidity;BMP_temperature;BMP_pressure;BME280_temperature;BME280_humidity;BME280_pressure;Samples;Min_cycle;Max_cycle;Signal;HPM_P1;HPM_P2
2021/07/14 00:01:25;;;;;;;12.25;9.40;;;;;;;24.31;61.21;99473.47;1802485;79;21120;-41
2021/07/14 00:03:53;;;;;;;11.65;9.30;;;;;;;24.28;61.35;99473.00;1796447;79;20981;-41
2021/07/14 00:06:20;;;;;;;9.58;8.68;;;;;;;24.27;61.41;99481.14;1764179;79;20970;-41
2021/07/14 00:08:46;;;;;;;12.80;9.55;;;;;;;24.26;61.51;99479.59;1754869;81;21084;-41
2021/07/14 00:11:13;;;;;;;10.32;8.25;;;;;;;24.29;62.11;99478.71;1744831;82;21013;-41
2021/07/14 00:22:11;;;;;;;10.40;9.35;;;;;;;24.31;62.46;99473.47;1721158;83;21053;-41
2021/07/14 00:24:39;;;;;;;11.70;9.60;;;;;;;24.30;62.28;99474.72;1721206;83;21025;-41
2021/07/14 00:27:06;;;;;;;11.43;10.10;;;;;;;24.28;62.23;99476.38;1770818;81;21593;-41
2021/07/14 00:29:36;;;;;;;10.80;9.70;;;;;;;24.27;62.22;99480.36;1770764;81;20890;-41
2021/07/14 00:32:06;;;;;;;10.53;9.43;;;;;;;24.25;62.15;99476.05;1789104;79;20949;-41
2021/07/14 00:34:33;;;;;;;12.82;10.70;;;;;;;24.28;62.15;99478.54;1798182;79;22109;-41
2021/07/14 00:37:00;;;;;;;14.73;11.48;;;;;;;24.30;61.93;99477.49;1793691;79;21021;-41
2021/07/14 00:39:27;;;;;;;14.70;11.18;;;;;;;24.28;61.90;99479.92;1807740;78;21919;-41
2021/07/14 00:41:53;;;;;;;14.23;11.88;;;;;;;24.23;62.16;99477.12;1778752;79;21010;-41
2021/07/14 00:44:20;;;;;;;13.98;11.97;;;;;;;24.21;62.37;99479.55;1770681;81;21015;-41
2021/07/14 00:46:48;;;;;;;14.50;10.88;;;;;;;24.16;62.39;99482.89;1770614;81;21010;-41
2021/07/14 00:49:16;;;;;;;12.58;10.98;;;;;;;24.13;62.54;99481.00;1760012;80;21051;-41
2021/07/14 00:51:42;;;;;;;15.10;11.05;;;;;;;24.12;62.54;99482.83;1781984;80;21555;-41
2021/07/14 00:54:09;;;;;;;14.90;11.05;;;;;;;24.10;62.56;99479.14;1783072;80;21519;-41
2021/07/14 00:56:36;;;;;;;11.22;10.13;;;;;;;24.13;62.67;99481.61;1769637;80;21788;-41
2021/07/14 00:59:04;;;;;;;13.30;10.95;;;;;;;24.14;62.75;99472.08;1768583;80;21014;-41
2021/07/14 01:01:31;;;;;;;13.40;11.28;;;;;;;24.14;62.76;99472.08;1791100;80;21077;-41
2021/07/14 01:04:23;;;;;;;12.30;10.30;;;;;;;24.12;62.68;99475.89;1791399;80;21080;-41
2021/07/14 01:07:02;;;;;;;12.60;10.55;;;;;;;24.11;62.64;99472.95;1791172;80;21065;-41
2021/07/14 01:09:41;;;;;;;12.95;10.93;;;;;;;24.08;62.57;99473.86;1781262;79;21527;-41
2021/07/14 01:12:56;;;;;;;12.47;11.23;;;;;;;24.04;62.60;99477.38;1793386;79;21756;-42
2021/07/14 01:15:22;;;;;;;11.90;10.70;;;;;;;24.03;62.62;99479.97;1771270;79;22179;-41
2021/07/14 01:18:03;;;;;;;15.30;10.72;;;;;;;24.02;62.62;99482.58;1763238;80;21137;-41
2021/07/14 01:20:48;;;;;;;;;;;;;;;24.04;62.45;99480.14;1787488;80;20978;-41
2021/07/14 01:23:40;;;;;;;12.95;10.95;;;;;;;24.01;62.24;99482.43;1784608;80;20174;-41
2021/07/14 01:26:55;;;;;;;12.73;11.43;;;;;;;23.89;62.29;99477.69;1756554;79;20951;-41
2021/07/14 01:29:22;;;;;;;12.45;11.22;;;;;;;23.89;62.35;99474.91;1770116;80;21084;-41
2021/07/14 01:31:50;;;;;;;13.60;11.83;;;;;;;23.83;62.59;99474.09;1784621;80;21080;-41
2021/07/14 01:34:16;;;;;;;13.40;11.65;;;;;;;23.82;62.75;99477.30;1784602;80;21497;-41
2021/07/14 01:36:48;;;;;;;12.58;11.18;;;;;;;23.80;62.75;99475.00;1784539;80;20998;-41
2021/07/14 01:39:15;;;;;;;12.60;11.33;;;;;;;23.81;62.70;99473.78;1787662;79;20950;-41
2021/07/14 01:41:45;;;;;;;12.35;10.70;;;;;;;23.82;62.70;99477.30;1795523;79;21590;-41
2021/07/14 01:44:12;;;;;;;12.15;10.95;;;;;;;23.80;62.81;99481.92;1760182;81;21111;-41
2021/07/14 01:46:40;;;;;;;13.28;11.57;;;;;;;23.77;62.84;99475.87;1759922;81;21029;-41
2021/07/14 01:49:12;;;;;;;12.50;11.28;;;;;;;23.77;62.85;99475.87;1782916;80;21085;-41
2021/07/14 01:51:47;;;;;;;13.45;11.10;;;;;;;23.76;62.84;99479.11;1776553;80;21009;-41
2021/07/14 01:54:16;;;;;;;13.53;11.97;;;;;;;23.74;62.77;99478.16;1760143;80;21100;-41
2021/07/14 01:56:43;;;;;;;;;;;;;;;23.72;62.80;99477.81;1714250;82;21080;-41
2021/07/14 01:59:11;;;;;;;15.32;12.00;;;;;;;23.73;62.85;99487.67;1713131;83;20715;-41
2021/07/14 02:01:40;;;;;;;14.85;11.68;;;;;;;23.67;63.24;99485.93;1713244;83;20984;-41
2021/07/14 02:06:53;;;;;;;12.15;10.80;;;;;;;23.70;63.37;99483.04;1713313;83;21521;-41
2021/07/14 02:09:20;;;;;;;12.43;10.32;;;;;;;23.70;63.39;99483.04;1713289;83;21128;-41
2021/07/14 02:11:47;;;;;;;13.18;10.93;;;;;;;23.70;63.24;99487.19;1739550;82;21029;-41
2021/07/14 02:14:20;;;;;;;11.53;10.40;;;;;;;23.64;63.12;99482.05;1736582;82;21064;-41
2021/07/14 02:16:48;;;;;;;12.20;10.45;;;;;;;23.67;63.35;99489.45;1713249;82;20933;-41
2021/07/14 02:19:17;;;;;;;11.85;10.58;;;;;;;23.66;64.23;99487.92;1659126;83;21550;-41
2021/07/14 02:21:44;;;;;;;11.93;10.05;;;;;;;23.70;64.49;99492.73;1713285;83;21850;-41
2021/07/14 02:24:14;;;;;;;11.57;10.27;;;;;;;23.73;64.41;99484.91;1713668;82;20977;-41
2021/07/14 02:26:43;;;;;;;12.13;10.38;;;;;;;23.75;64.36;99484.47;1722565;82;21487;-41
2021/07/14 02:29:10;;;;;;;11.40;10.23;;;;;;;23.76;64.43;99489.57;1739277;82;20978;-41
2021/07/14 02:31:37;;;;;;;12.20;10.82;;;;;;;23.77;64.61;99497.23;1726435;82;21079;-41
2021/07/14 02:34:05;;;;;;;12.33;10.75;;;;;;;23.79;64.69;99503.12;1713525;83;21134;-41
2021/07/14 02:36:33;;;;;;;12.30;10.70;;;;;;;23.81;64.77;99497.31;1661032;82;20958;-41
2021/07/14 02:39:03;;;;;;;12.68;10.80;;;;;;;23.84;64.85;99491.48;1742307;81;20989;-41
2021/07/14 02:41:46;;;;;;;12.98;10.70;;;;;;;23.89;64.75;99495.08;1742335;82;21041;-41
2021/07/14 02:44:12;;;;;;;12.58;11.33;;;;;;;23.93;64.54;99506.02;1743347;81;21018;-41
2021/07/14 02:49:22;;;;;;;15.40;11.70;;;;;;;23.99;64.24;99515.33;1780668;79;22630;-40
2021/07/14 02:51:49;;;;;;;13.08;10.95;;;;;;;23.92;64.20;99506.63;1727034;83;20980;-41
2021/07/14 02:54:21;;;;;;;15.13;12.47;;;;;;;23.94;63.96;99503.42;1748502;81;21102;-41
2021/07/14 02:56:52;;;;;;;14.60;12.05;;;;;;;23.94;63.92;99505.59;1726953;83;20961;-41
2021/07/14 02:59:21;;;;;;;14.00;11.35;;;;;;;23.94;63.99;99507.58;1726691;82;21537;-41
2021/07/14 03:01:48;;;;;;;16.05;11.60;;;;;;;23.96;63.97;99517.61;1726839;82;20988;-41
2021/07/14 03:04:14;;;;;;;14.23;11.93;;;;;;;24.01;63.82;99511.52;1742625;81;22114;-41
2021/07/14 03:06:41;;;;;;;12.50;11.20;;;;;;;24.03;63.70;99518.75;1747366;81;21094;-41
2021/07/14 03:09:10;;;;;;;12.47;11.00;;;;;;;24.04;63.56;99516.92;1743221;81;21355;-41
2021/07/14 03:11:42;;;;;;;12.25;11.05;;;;;;;24.04;63.51;99514.77;1785204;80;21007;-41
2021/07/14 03:14:12;;;;;;;12.55;11.33;;;;;;;24.05;63.43;99519.09;1777465;80;21500;-41
2021/07/14 03:16:38;;;;;;;15.23;11.60;;;;;;;24.05;63.58;99524.02;1726648;82;21652;-41
2021/07/14 03:19:06;;;;;;;12.40;11.20;;;;;;;24.09;63.52;99523.89;1726676;83;21942;-41
2021/07/14 03:21:34;;;;;;;13.38;11.00;;;;;;;24.14;63.74;99520.56;1746435;81;20965;-41
2021/07/14 03:24:05;;;;;;;12.75;11.45;;;;;;;24.20;63.85;99517.42;1756780;81;21068;-41
2021/07/14 03:26:33;;;;;;;12.80;11.50;;;;;;;24.25;63.94;99518.23;1756202;81;20968;-41
2021/07/14 03:29:01;;;;;;;12.68;11.28;;;;;;;24.30;63.97;99516.89;1736924;81;21040;-41
2021/07/14 03:31:29;;;;;;;12.40;11.20;;;;;;;24.34;63.99;99516.93;1737899;81;21092;-41
2021/07/14 03:33:57;;;;;;;12.18;10.88;;;;;;;24.39;63.91;99510.81;1756788;81;21598;-41
2021/07/14 03:36:24;;;;;;;14.25;11.95;;;;;;;24.47;63.74;99514.88;1744626;81;21008;-41
2021/07/14 03:38:52;;;;;;;14.43;13.00;;;;;;;24.53;63.52;99520.63;1708136;83;21020;-41
2021/07/14 03:41:20;;;;;;;13.62;12.30;;;;;;;24.61;63.42;99521.30;1726750;83;21080;-41
2021/07/14 03:43:47;;;;;;;14.98;13.38;;;;;;;24.64;63.56;99524.55;1742607;82;21118;-41
2021/07/14 03:46:14;;;;;;;15.68;13.88;;;;;;;24.68;63.56;99523.83;1756649;81;20917;-41
2021/07/14 03:48:41;;;;;;;15.23;13.50;;;;;;;24.72;63.42;99528.46;1734554;81;21027;-41
2021/07/14 03:51:08;;;;;;;17.65;13.18;;;;;;;24.76;63.19;99530.48;1751913;81;20981;-41
2021/07/14 03:53:35;;;;;;;15.15;13.50;;;;;;;24.81;63.02;99525.75;1740233;81;21029;-41
2021/07/14 03:56:02;;;;;;;17.48;12.65;;;;;;;24.85;62.77;99530.55;1731611;81;21973;-41
2021/07/14 03:58:29;;;;;;;14.58;12.75;;;;;;;24.85;62.66;99530.55;1751860;81;21077;-41
2021/07/14 04:00:56;;;;;;;14.80;13.30;;;;;;;24.87;62.47;99527.53;1751204;82;20965;-41
2021/07/14 04:03:27;;;;;;;14.40;12.45;;;;;;;24.90;62.86;99525.23;1744616;82;21026;-41
2021/07/14 04:06:01;;;;;;;14.13;11.95;;;;;;;24.96;63.46;99524.03;1751199;82;21362;-41
2021/07/14 04:08:46;;;;;;;12.80;11.45;;;;;;;25.02;63.84;99529.16;1750982;81;21156;-41
2021/07/14 04:11:13;;;;;;;13.22;11.88;;;;;;;25.08;64.02;99530.11;1740946;80;21044;-41
2021/07/14 04:13:42;;;;;;;14.65;11.63;;;;;;;25.17;64.14;99530.80;1721763;82;21893;-41
2021/07/14 04:16:08;;;;;;;13.00;11.70;;;;;;;25.23;64.08;99530.34;1751397;82;21504;-41
2021/07/14 04:18:37;;;;;;;13.43;12.13;;;;;;;25.30;64.11;99530.86;1751398;81;21045;-41
2021/07/14 04:21:03;;;;;;;13.90;12.50;;;;;;;25.35;64.03;99530.27;1751342;82;21048;-41
2021/07/14 04:23:30;;;;;;;16.85;12.18;;;;;;;25.43;63.72;99530.14;1751160;82;20922;-41
2021/07/14 04:25:57;;;;;;;13.55;12.15;;;;;;;25.51;62.79;99534.81;1751201;80;21053;-41
2021/07/14 04:28:25;;;;;;;13.13;11.48;;;;;;;25.60;62.24;99529.94;1743860;82;20969;-41
2021/07/14 04:30:51;;;;;;;12.50;10.75;;;;;;;25.66;62.19;99527.48;1721254;83;21077;-41
2021/07/14 04:33:18;;;;;;;14.83;11.70;;;;;;;25.73;61.93;99529.98;1721306;82;21089;-41
2021/07/14 04:35:46;;;;;;;14.47;11.48;;;;;;;25.78;61.58;99521.66;1721174;83;21028;-41
2021/07/14 04:38:15;;;;;;;14.35;11.88;;;;;;;25.86;61.82;99531.24;1721325;83;21026;-41
2021/07/14 04:40:42;;;;;;;12.45;11.25;;;;;;;25.90;61.31;99530.50;1721198;83;20974;-41
2021/07/14 04:43:10;;;;;;;13.20;11.78;;;;;;;25.92;60.75;99528.02;1721346;82;21044;-41
2021/07/14 04:45:37;;;;;;;15.40;13.43;;;;;;;25.94;60.71;99534.68;1721954;82;21172;-41
2021/07/14 04:48:06;;;;;;;14.30;12.25;;;;;;;25.98;60.84;99542.09;1722543;83;21025;-42
2021/07/14 04:50:33;;;;;;;15.93;13.17;;;;;;;26.04;60.91;99543.81;1726759;83;21567;-41
2021/07/14 04:52:59;;;;;;;16.15;13.40;;;;;;;26.11;60.74;99544.89;1755243;80;21025;-42
2021/07/14 04:55:26;;;;;;;15.18;13.75;;;;;;;26.17;60.65;99543.67;1756655;81;21025;-41
2021/07/14 04:57:53;;;;;;;15.00;13.13;;;;;;;26.23;60.67;99546.80;1756577;81;21545;-41
2021/07/14 05:00:20;;;;;;;16.82;13.28;;;;;;;26.28;60.28;99543.42;1756536;81;21535;-41
2021/07/14 05:02:47;;;;;;;15.58;13.98;;;;;;;26.31;60.90;99535.53;1755309;81;21008;-41
2021/07/14 05:05:15;;;;;;;16.67;15.08;;;;;;;26.37;61.26;99536.47;1749983;81;20937;-41
2021/07/14 05:07:42;;;;;;;17.37;15.13;;;;;;;26.47;61.53;99544.81;1756527;81;21487;-41
2021/07/14 05:10:10;;;;;;;16.85;15.28;;;;;;;26.58;61.70;99536.77;1756567;81;21137;-41
2021/07/14 05:12:37;;;;;;;17.23;15.53;;;;;;;26.67;61.34;99534.78;1754633;81;20993;-41
2021/07/14 05:15:05;;;;;;;17.07;15.00;;;;;;;26.77;61.47;99536.93;1738704;81;21079;-42
2021/07/14 05:17:32;;;;;;;14.10;12.80;;;;;;;26.88;61.01;99540.02;1743616;81;20941;-42
2021/07/14 05:20:00;;;;;;;15.18;12.70;;;;;;;26.96;59.60;99534.30;1756561;81;21368;-41
2021/07/14 05:22:28;;;;;;;14.93;12.95;;;;;;;27.04;59.10;99540.31;1756549;81;21230;-41
2021/07/14 05:24:55;;;;;;;15.38;13.95;;;;;;;27.12;59.57;99535.33;1756390;81;20997;-41
2021/07/14 05:27:22;;;;;;;15.20;13.60;;;;;;;27.23;59.73;99539.02;1756504;81;20965;-42
2021/07/14 05:29:49;;;;;;;13.48;12.13;;;;;;;27.28;59.55;99546.74;1756568;81;21495;-41
2021/07/14 05:32:17;;;;;;;11.75;10.63;;;;;;;27.35;58.91;99551.99;1756728;81;21508;-41
2021/07/14 05:34:44;;;;;;;10.18;9.28;;;;;;;27.41;57.69;99540.34;1756130;81;21084;-42
2021/07/14 05:37:11;;;;;;;9.45;8.20;;;;;;;27.47;56.51;99541.88;1756491;81;21004;-42
2021/07/14 05:39:38;;;;;;;8.78;7.87;;;;;;;27.50;54.62;99547.30;1756706;81;21448;-41
2021/07/14 05:42:06;;;;;;;8.23;7.40;;;;;;;27.51;54.45;99545.30;1756520;81;21088;-42
2021/07/14 05:44:33;;;;;;;8.13;7.35;;;;;;;27.54;54.59;99540.20;1754774;81;21210;-41
2021/07/14 05:47:00;;;;;;;8.30;7.37;;;;;;;27.57;54.46;99544.81;1748574;81;21112;-42
2021/07/14 05:49:26;;;;;;;9.13;8.23;;;;;;;27.62;54.45;99544.95;1741462;81;21030;-41
2021/07/14 05:51:53;;;;;;;9.35;8.35;;;;;;;27.69;54.20;99536.88;1741543;80;20956;-42
2021/07/14 05:54:20;;;;;;;7.75;6.95;;;;;;;27.75;54.58;99539.16;1712730;83;21488;-42
2021/07/14 05:56:47;;;;;;;8.38;7.58;;;;;;;27.83;54.18;99543.16;1712510;82;21080;-42
2021/07/14 05:59:14;;;;;;;7.58;6.87;;;;;;;27.89;53.65;99544.03;1724874;82;21102;-42
2021/07/14 06:01:41;;;;;;;8.18;6.70;;;;;;;27.94;53.30;99541.98;1713541;83;21109;-42
2021/07/14 06:04:07;;;;;;;11.73;7.62;;;;;;;28.02;52.78;99547.38;1713498;83;21547;-42
2021/07/14 06:06:34;;;;;;;9.15;8.25;;;;;;;28.09;53.22;99542.05;1713574;82;20982;-42
2021/07/14 06:09:01;;;;;;;8.88;7.97;;;;;;;28.18;52.42;99543.42;1712347;83;21068;-42
2021/07/14 06:11:28;;;;;;;12.47;9.03;;;;;;;28.27;51.79;99535.64;1705494;84;21948;-42
2021/07/14 06:13:54;;;;;;;17.75;9.35;;;;;;;28.36;52.37;99535.56;1706218;83;20970;-42
2021/07/14 06:16:21;;;;;;;15.38;8.05;;;;;;;28.44;52.30;99536.11;1701389;83;21001;-42
2021/07/14 06:18:48;;;;;;;10.50;8.48;;;;;;;28.53;52.39;99534.64;1712091;83;21539;-42
2021/07/14 06:21:14;;;;;;;11.45;8.88;;;;;;;28.61;51.92;99537.81;1711991;83;21051;-42
2021/07/14 06:23:41;;;;;;;22.67;9.20;;;;;;;28.69;51.34;99541.02;1712056;83;21924;-42
2021/07/14 06:26:07;;;;;;;9.85;8.93;;;;;;;28.75;51.72;99541.94;1713499;83;21040;-42
2021/07/14 06:28:34;;;;;;;11.60;8.78;;;;;;;28.83;51.87;99535.49;1713256;82;21566;-42
2021/07/14 06:31:01;;;;;;;9.53;8.58;;;;;;;28.90;52.35;99540.68;1713297;83;21045;-42
2021/07/14 06:33:28;;;;;;;11.93;8.50;;;;;;;28.97;51.78;99536.75;1713934;83;21044;-42
2021/07/14 06:35:55;;;;;;;9.68;8.73;;;;;;;29.05;51.75;99539.95;1713657;83;21759;-42
2021/07/14 06:38:22;;;;;;;9.10;8.23;;;;;;;29.15;51.55;99541.36;1713476;82;21008;-42
2021/07/14 06:40:49;;;;;;;9.40;8.40;;;;;;;29.21;50.07;99534.63;1713385;83;21089;-42
2021/07/14 06:43:17;;;;;;;10.18;8.68;;;;;;;29.25;50.41;99539.39;1713550;83;20993;-42
2021/07/14 06:45:45;;;;;;;9.18;8.28;;;;;;;29.32;50.63;99535.48;1711513;82;21100;-42
2021/07/14 06:48:12;;;;;;;9.40;8.38;;;;;;;29.37;50.08;99544.58;1705470;82;21804;-42
2021/07/14 06:50:39;;;;;;;9.10;8.05;;;;;;;29.40;50.10;99535.22;1705644;83;21057;-42
2021/07/14 06:53:05;;;;;;;11.33;7.28;;;;;;;29.46;50.19;99538.10;1696406;83;21052;-42
2021/07/14 06:55:33;;;;;;;8.10;7.30;;;;;;;29.50;48.36;99535.25;1701890;83;21049;-42
2021/07/14 06:58:00;;;;;;;9.65;7.58;;;;;;;29.54;47.80;99541.41;1709249;83;21542;-42
2021/07/14 07:00:27;;;;;;;7.75;6.85;;;;;;;29.60;47.33;99545.06;1710192;83;21146;-42
2021/07/14 07:02:54;;;;;;;8.63;7.83;;;;;;;29.66;47.26;99541.73;1708241;83;20984;-43
2021/07/14 07:05:21;;;;;;;7.97;7.20;;;;;;;29.72;47.46;99546.78;1707652;82;21519;-42
2021/07/14 07:07:47;;;;;;;8.50;7.25;;;;;;;29.79;47.78;99543.57;1705420;84;21085;-42
2021/07/14 07:10:14;;;;;;;8.63;7.28;;;;;;;29.89;48.94;99542.08;1706621;83;21066;-42
2021/07/14 07:12:41;;;;;;;8.45;7.65;;;;;;;29.99;48.21;99551.25;1705477;84;21179;-42
2021/07/14 07:15:09;;;;;;;10.28;7.47;;;;;;;30.04;47.05;99543.56;1709169;83;21021;-42
2021/07/14 07:17:38;;;;;;;10.48;7.60;;;;;;;30.10;46.80;99551.41;1707434;83;21037;-42
2021/07/14 07:20:06;;;;;;;8.50;7.60;;;;;;;30.14;46.31;99550.57;1713477;83;21016;-42
2021/07/14 07:22:33;;;;;;;11.55;7.03;;;;;;;30.20;46.11;99542.25;1713490;83;21037;-42
2021/07/14 07:25:01;;;;;;;8.55;7.67;;;;;;;30.25;45.05;99537.36;1713320;83;21180;-42
2021/07/14 07:27:33;;;;;;;8.13;7.33;;;;;;;30.31;45.25;99538.18;1713441;83;21018;-42
2021/07/14 07:29:56;;;;;;;9.20;7.87;;;;;;;30.38;45.53;99537.77;1706923;82;21006;-42
2021/07/14 07:32:22;;;;;;;9.35;8.25;;;;;;;30.48;46.09;99535.00;1713702;82;21610;-42
2021/07/14 07:34:49;;;;;;;8.98;8.10;;;;;;;30.58;45.84;99534.98;1713801;82;21076;-42
2021/07/14 07:37:15;;;;;;;8.98;8.05;;;;;;;30.62;45.75;99529.94;1713311;83;21110;-42
2021/07/14 07:39:42;;;;;;;11.43;8.38;;;;;;;30.69;46.60;99533.57;1672943;85;21025;-42
2021/07/14 07:42:09;;;;;;;10.05;7.50;;;;;;;30.78;46.40;99534.18;1712924;83;21004;-42
2021/07/14 07:44:37;;;;;;;10.65;7.67;;;;;;;30.89;45.71;99536.30;1728575;83;21020;-42
2021/07/14 07:47:04;;;;;;;11.83;6.72;;;;;;;30.98;45.82;99527.76;1728529;83;21463;-42
2021/07/14 07:49:31;;;;;;;12.90;7.40;;;;;;;31.09;45.23;99527.87;1730869;82;21132;-42
2021/07/14 07:51:57;;;;;;;7.70;6.95;;;;;;;31.22;44.66;99526.86;1724011;82;21598;-42
2021/07/14 07:54:25;;;;;;;7.72;6.92;;;;;;;31.32;44.06;99527.45;1715505;83;21092;-42
2021/07/14 07:56:52;;;;;;;12.18;6.80;;;;;;;31.40;43.31;99530.69;1714737;83;21115;-42
2021/07/14 07:59:19;;;;;;;17.48;7.35;;;;;;;31.50;43.19;99525.03;1713422;83;21040;-43
2021/07/14 08:01:46;;;;;;;12.53;7.00;;;;;;;31.62;43.92;99522.32;1713932;83;21861;-42
2021/07/14 08:04:12;;;;;;;13.40;7.87;;;;;;;31.73;43.04;99523.80;1715445;83;20941;-42
2021/07/14 08:06:39;;;;;;;8.35;7.00;;;;;;;31.83;42.83;99522.34;1713468;83;21012;-42
2021/07/14 08:09:06;;;;;;;9.55;7.42;;;;;;;31.92;42.39;99524.94;1715612;82;21012;-42
2021/07/14 08:11:34;;;;;;;9.43;6.97;;;;;;;32.00;41.59;99518.23;1720548;82;21009;-42
2021/07/14 08:14:01;;;;;;;21.35;7.45;;;;;;;32.06;42.58;99521.18;1697021;83;21173;-42
2021/07/14 08:16:28;;;;;;;9.50;7.25;;;;;;;32.17;42.49;99512.84;1707418;83;21658;-42
2021/07/14 08:18:56;;;;;;;7.78;6.80;;;;;;;32.29;41.51;99513.67;1696238;82;20976;-42
2021/07/14 08:21:25;;;;;;;8.78;6.92;;;;;;;32.43;41.55;99516.91;1722819;81;20940;-42
2021/07/14 08:23:53;;;;;;;8.60;6.90;;;;;;;32.56;41.16;99515.02;1720674;81;21076;-42
2021/07/14 08:26:20;;;;;;;7.67;6.80;;;;;;;32.68;41.03;99518.77;1717960;83;21134;-42
2021/07/14 08:28:46;;;;;;;8.68;7.05;;;;;;;32.78;40.29;99515.86;1721066;82;20982;-42
2021/07/14 08:31:13;;;;;;;7.05;6.37;;;;;;;32.81;39.77;99517.53;1715702;82;21017;-42
2021/07/14 08:33:39;;;;;;;7.33;6.50;;;;;;;32.84;40.17;99515.88;1715610;82;21037;-42
2021/07/14 08:36:06;;;;;;;8.98;6.97;;;;;;;32.92;39.04;99515.48;1721433;83;21550;-42
2021/07/14 08:38:32;;;;;;;7.92;6.87;;;;;;;33.01;39.12;99518.08;1721814;83;21732;-43
2021/07/14 08:40:59;;;;;;;6.62;6.03;;;;;;;33.09;39.68;99514.88;1721088;82;20985;-43
2021/07/14 08:43:27;;;;;;;8.45;6.65;;;;;;;33.18;39.39;99517.46;1718062;82;21013;-42
2021/07/14 08:45:56;;;;;;;11.40;6.62;;;;;;;33.31;39.50;99516.94;1692555;84;20984;-42
2021/07/14 08:48:23;;;;;;;7.67;6.40;;;;;;;33.44;39.46;99515.03;1712454;82;21061;-42
2021/07/14 08:50:52;;;;;;;8.18;6.85;;;;;;;33.54;39.14;99515.66;1718154;82;22506;-42
2021/07/14 08:53:20;;;;;;;9.03;7.30;;;;;;;33.68;39.27;99512.46;1718401;82;21053;-42
2021/07/14 08:55:48;;;;;;;7.87;6.55;;;;;;;33.79;37.74;99509.61;1718986;82;21606;-43
2021/07/14 08:58:19;;;;;;;8.33;6.55;;;;;;;33.73;37.77;99501.84;1718401;83;21076;-42
2021/07/14 09:00:48;;;;;;;7.58;6.87;;;;;;;33.64;38.30;99502.09;1719001;82;21084;-42
2021/07/14 09:03:14;;;;;;;7.75;6.92;;;;;;;33.59;38.57;99498.66;1719077;83;21715;-43
2021/07/14 09:05:41;;;;;;;11.78;8.80;;;;;;;33.59;38.50;99504.27;1719098;82;20977;-42
2021/07/14 09:08:08;;;;;;;7.60;6.90;;;;;;;33.63;39.19;99497.11;1719044;83;20993;-42
2021/07/14 09:10:35;;;;;;;8.58;6.67;;;;;;;33.77;38.90;99492.50;1718939;83;21033;-43
2021/07/14 09:13:01;;;;;;;8.58;7.15;;;;;;;33.92;38.18;99493.60;1718251;82;21666;-42
2021/07/14 09:15:31;;;;;;;9.63;7.05;;;;;;;34.09;38.41;99494.30;1718434;82;21194;-43
2021/07/14 09:17:59;;;;;;;;;;;;;;;34.20;37.46;99494.28;1720415;82;21488;-42
2021/07/14 09:20:33;;;;;;;8.20;7.08;;;;;;;34.28;37.33;99490.27;1717586;82;20191;-42
2021/07/14 09:23:21;;;;;;;9.85;7.17;;;;;;;34.29;38.21;99487.58;1726437;82;21073;-43
2021/07/14 09:25:51;;;;;;;9.83;6.87;;;;;;;34.42;38.30;99493.42;1692993;82;21017;-43
2021/07/14 09:28:21;;;;;;;9.35;6.90;;;;;;;34.48;37.99;99489.27;1732839;82;21967;-43
2021/07/14 09:30:52;;;;;;;9.80;7.45;;;;;;;34.52;37.49;99493.88;1718429;82;21110;-42
2021/07/14 09:33:19;;;;;;;8.65;7.40;;;;;;;34.46;37.32;99491.09;1717775;83;21044;-43
2021/07/14 09:35:50;;;;;;;8.80;7.15;;;;;;;34.38;37.42;99490.86;1702131;82;21061;-43
2021/07/14 09:38:33;;;;;;;7.97;7.17;;;;;;;34.35;37.95;99488.33;1725986;82;21632;-42
2021/07/14 09:41:07;;;;;;;8.88;7.42;;;;;;;34.42;38.11;99484.98;1723074;82;21139;-43
2021/07/14 09:43:42;;;;;;;7.78;7.03;;;;;;;34.50;38.19;99483.77;1716842;82;21028;-43
2021/07/14 09:46:13;;;;;;;7.78;6.75;;;;;;;34.49;37.75;99484.41;1714384;82;21001;-42
2021/07/14 09:48:43;;;;;;;7.70;6.90;;;;;;;34.57;38.59;99486.78;1718966;82;21081;-42
2021/07/14 09:51:19;;;;;;;9.00;6.85;;;;;;;34.71;38.11;99482.87;1721435;82;21530;-43
2021/07/14 09:53:52;;;;;;;15.15;7.65;;;;;;;34.80;37.22;99479.00;1748089;82;21813;-43
2021/07/14 09:56:25;;;;;;;9.53;6.92;;;;;;;34.92;37.00;99472.62;1722464;82;21610;-42
2021/07/14 09:59:12;;;;;;;9.15;6.53;;;;;;;35.05;37.27;99477.02;1707702;83;21583;-43
2021/07/14 10:01:49;;;;;;;9.47;6.40;;;;;;;35.12;35.99;99473.61;1710788;83;20930;-43
2021/07/14 10:04:36;;;;;;;7.92;6.42;;;;;;;35.10;35.41;99467.75;1710154;83;21017;-43
2021/07/14 10:07:15;;;;;;;7.53;6.20;;;;;;;35.00;35.36;99477.83;1679141;85;21195;-43
2021/07/14 10:09:44;;;;;;;6.92;6.22;;;;;;;34.94;36.07;99471.46;1678967;85;21040;-43
2021/07/14 10:12:35;;;;;;;7.35;6.50;;;;;;;35.01;36.76;99474.46;1713203;82;21511;-43
2021/07/14 10:15:18;;;;;;;7.58;6.40;;;;;;;35.10;36.27;99476.20;1717842;82;20977;-43
2021/07/14 10:17:50;;;;;;;11.38;6.33;;;;;;;35.15;36.73;99481.00;1711811;82;21056;-42
2021/07/14 10:20:39;;;;;;;8.30;6.22;;;;;;;35.29;36.04;99486.95;1698159;83;21139;-43
2021/07/14 10:23:12;;;;;;;6.55;5.95;;;;;;;35.37;33.89;99477.25;1708532;82;21026;-42
2021/07/14 10:25:42;;;;;;;9.58;6.12;;;;;;;35.33;34.77;99479.61;1702087;83;21648;-43
2021/07/14 10:28:10;;;;;;;9.53;5.95;;;;;;;35.40;34.86;99486.83;1687705;83;21650;-43
2021/07/14 10:30:39;;;;;;;6.92;6.22;;;;;;;35.43;35.20;99485.79;1678096;84;21088;-43
2021/07/14 10:33:09;;;;;;;6.80;5.95;;;;;;;35.45;34.17;99481.78;1709905;83;21081;-42
2021/07/14 10:35:42;;;;;;;8.25;5.97;;;;;;;35.40;34.85;99482.59;1709678;82;21064;-43
2021/07/14 10:38:21;;;;;;;11.30;6.45;;;;;;;35.49;34.88;99478.66;1708645;82;21041;-43
2021/07/14 10:40:49;;;;;;;;;;;;;;;35.69;34.67;99481.05;1710210;82;21049;-43
2021/07/14 10:43:21;;;;;;;8.38;5.50;;;;;;;35.94;34.45;99476.91;1713231;83;20202;-43
2021/07/14 10:45:50;;;;;;;6.72;5.42;;;;;;;36.15;34.13;99475.80;1710591;82;20965;-43
2021/07/14 10:48:19;;;;;;;5.67;5.08;;;;;;;36.42;32.44;99473.88;1709635;83;20941;-43
2021/07/14 10:50:47;;;;;;;7.90;6.15;;;;;;;36.48;32.34;99471.09;1720631;81;21028;-43
2021/07/14 10:53:17;;;;;;;7.83;6.08;;;;;;;36.58;32.52;99474.30;1725960;82;22286;-43
2021/07/14 10:55:45;;;;;;;;;;;;;;;36.67;31.82;99473.16;1691398;84;21533;-43
2021/07/14 10:58:18;;;;;;;6.85;4.95;;;;;;;36.64;31.32;99465.77;1689605;84;21132;-43
2021/07/14 11:00:46;;;;;;;10.30;5.00;;;;;;;36.45;31.84;99466.53;1697510;83;21053;-43
2021/07/14 11:03:38;;;;;;;5.70;5.03;;;;;;;36.46;31.53;99470.09;1698562;83;20932;-43
2021/07/14 11:06:09;;;;;;;9.00;5.28;;;;;;;36.59;31.72;99456.81;1684558;84;20943;-43
2021/07/14 11:08:50;;;;;;;5.37;4.70;;;;;;;36.87;30.89;99469.11;1686683;84;21072;-43
2021/07/14 11:11:20;;;;;;;6.80;5.35;;;;;;;37.10;30.12;99468.11;1687517;84;20998;-46
2021/07/14 11:13:50;;;;;;;7.10;6.03;;;;;;;37.28;29.95;99465.86;1690909;83;21068;-47
2021/07/14 11:16:33;;;;;;;9.90;5.20;;;;;;;37.35;29.92;99468.06;1679711;84;21020;-42
2021/07/14 11:19:17;;;;;;;5.37;4.87;;;;;;;37.38;29.42;99460.55;1666477;84;21033;-42
2021/07/14 11:21:47;;;;;;;5.83;4.90;;;;;;;37.35;28.94;99460.99;1666706;85;21018;-42
2021/07/14 11:24:51;;;;;;;5.50;4.90;;;;;;;37.29;28.90;99462.39;1672884;85;21839;-42
2021/07/14 11:27:33;;;;;;;8.93;5.03;;;;;;;37.26;28.88;99461.42;1669076;85;21058;-42
2021/07/14 11:30:08;;;;;;;7.97;5.08;;;;;;;37.34;30.19;99460.11;1673819;85;21040;-43
2021/07/14 11:32:44;;;;;;;6.50;5.40;;;;;;;37.48;29.39;99470.78;1678291;84;21123;-42
2021/07/14 11:35:25;;;;;;;5.90;5.40;;;;;;;37.50;30.33;99461.88;1679641;84;21068;-42
2021/07/14 11:37:57;;;;;;;6.20;5.30;;;;;;;37.57;30.48;99466.16;1685913;85;21156;-43
2021/07/14 11:40:29;;;;;;;7.25;5.20;;;;;;;37.47;29.54;99460.14;1686915;85;21083;-42
2021/07/14 11:43:13;;;;;;;5.67;5.05;;;;;;;37.40;29.92;99460.13;1682506;85;21025;-42
2021/07/14 11:45:44;;;;;;;4.97;4.53;;;;;;;37.56;31.02;99466.05;1686166;85;21005;-42
2021/07/14 11:48:19;;;;;;;5.65;5.15;;;;;;;38.04;30.09;99465.62;1683461;85;21053;-43
2021/07/14 11:50:56;;;;;;;8.55;4.97;;;;;;;38.35;29.82;99464.55;1654044;85;21544;-43
2021/07/14 11:53:39;;;;;;;5.67;5.05;;;;;;;38.66;29.03;99461.54;1709223;83;21546;-43